sensor_id;sensor_type;location;lat;lon;timestamp;P1;P2;P0
40569;PMS5003;26270;34.428;-119.710;2023-03-05T00:00:51;9;6;
40569;PMS5003;26270;34.428;-119.710;2023-03-05T00:03:19;8;7;
40569;PMS5003;26270;34.428;-119.710;2023-03-05T00:05:47;9;7;
40569;PMS5003;26270;34.428;-119.710;2023-03-05T00:08:22;9;7;
40569;PMS5003;26270;34.428;-119.710;2023-03-05T00:10:55;8;7;
40569;PMS5003;26270;34.428;-119.710;2023-03-05T00:13:24;9;7;
40569;PMS5003;26270;34.428;-119.710;2023-03-05T00:15:52;6;6;
40569;PMS5003;26270;34.428;-119.710;2023-03-05T00:18:20;5;5;
40569;PMS5003;26270;34.428;-119.710;2023-03-05T00:20:49;10;7;
40569;PMS5003;26270;34.428;-119.710;2023-03-05T00:23:18;9;7;
40569;PMS5003;26270;34.428;-119.710;2023-03-05T00:25:46;7;7;
40569;PMS5003;26270;34.428;-119.710;2023-03-05T00:28:14;5;5;
40569;PMS5003;26270;34.428;-119.710;2023-03-05T00:30:43;7;6;
40569;PMS5003;26270;34.428;-119.710;2023-03-05T00:33:12;11;8;
40569;PMS5003;26270;34.428;-119.710;2023-03-05T00:35:42;13;10;
40569;PMS5003;26270;34.428;-119.710;2023-03-05T00:38:12;9;8;
40569;PMS5003;26270;34.428;-119.710;2023-03-05T00:40:40;8;8;
40569;PMS5003;26270;34.428;-119.710;2023-03-05T00:43:08;7;7;
40569;PMS5003;26270;34.428;-119.710;2023-03-05T00:45:37;7;6;
40569;PMS5003;26270;34.428;-119.710;2023-03-05T00:48:05;9;8;
40569;PMS5003;26270;34.428;-119.710;2023-03-05T00:50:33;9;6;
40569;PMS5003;26270;34.428;-119.710;2023-03-05T00:53:01;7;6;
40569;PMS5003;26270;34.428;-119.710;2023-03-05T00:55:30;11;9;
40569;PMS5003;26270;34.428;-119.710;2023-03-05T00:57:58;8;7;
40569;PMS5003;26270;34.428;-119.710;2023-03-05T01:00:26;15;13;
40569;PMS5003;26270;34.428;-119.710;2023-03-05T01:02:55;10;7;
40569;PMS5003;26270;34.428;-119.710;2023-03-05T01:05:23;12;9;
40569;PMS5003;26270;34.428;-119.710;2023-03-05T01:07:52;13;8;
40569;PMS5003;26270;34.428;-119.710;2023-03-05T01:10:20;10;9;
40569;PMS5003;26270;34.428;-119.710;2023-03-05T01:12:50;8;7;
40569;PMS5003;26270;34.428;-119.710;2023-03-05T01:15:18;10;9;
40569;PMS5003;26270;34.428;-119.710;2023-03-05T01:17:46;8;8;
40569;PMS5003;26270;34.428;-119.710;2023-03-05T01:20:16;9;8;
40569;PMS5003;26270;34.428;-119.710;2023-03-05T01:22:47;8;8;
40569;PMS5003;26270;34.428;-119.710;2023-03-05T01:25:16;8;8;
40569;PMS5003;26270;34.428;-119.710;2023-03-05T01:27:44;9;9;
40569;PMS5003;26270;34.428;-119.710;2023-03-05T01:30:13;7;5;
40569;PMS5003;26270;34.428;-119.710;2023-03-05T01:32:42;7;7;
40569;PMS5003;26270;34.428;-119.710;2023-03-05T01:35:14;9;9;
40569;PMS5003;26270;34.428;-119.710;2023-03-05T01:37:44;10;9;
40569;PMS5003;26270;34.428;-119.710;2023-03-05T01:40:19;8;8;
40569;PMS5003;26270;34.428;-119.710;2023-03-05T01:42:56;10;10;
40569;PMS5003;26270;34.428;-119.710;2023-03-05T01:45:28;8;7;
40569;PMS5003;26270;34.428;-119.710;2023-03-05T01:47:57;14;9;
40569;PMS5003;26270;34.428;-119.710;2023-03-05T01:50:25;9;9;
40569;PMS5003;26270;34.428;-119.710;2023-03-05T01:52:56;9;8;
40569;PMS5003;26270;34.428;-119.710;2023-03-05T01:55:28;11;10;
40569;PMS5003;26270;34.428;-119.710;2023-03-05T01:58:02;20;8;
40569;PMS5003;26270;34.428;-119.710;2023-03-05T02:00:34;14;10;
40569;PMS5003;26270;34.428;-119.710;2023-03-05T02:03:07;12;9;
40569;PMS5003;26270;34.428;-119.710;2023-03-05T02:05:38;7;7;
40569;PMS5003;26270;34.428;-119.710;2023-03-05T02:08:08;8;7;
40569;PMS5003;26270;34.428;-119.710;2023-03-05T02:10:39;10;9;
40569;PMS5003;26270;34.428;-119.710;2023-03-05T02:13:12;13;11;
40569;PMS5003;26270;34.428;-119.710;2023-03-05T02:15:42;10;10;
40569;PMS5003;26270;34.428;-119.710;2023-03-05T02:18:11;9;9;
40569;PMS5003;26270;34.428;-119.710;2023-03-05T02:20:42;12;11;
40569;PMS5003;26270;34.428;-119.710;2023-03-05T02:23:13;21;13;
40569;PMS5003;26270;34.428;-119.710;2023-03-05T02:25:42;16;13;
40569;PMS5003;26270;34.428;-119.710;2023-03-05T02:28:12;19;13;
40569;PMS5003;26270;34.428;-119.710;2023-03-05T02:30:44;18;11;
40569;PMS5003;26270;34.428;-119.710;2023-03-05T02:33:13;11;10;
40569;PMS5003;26270;34.428;-119.710;2023-03-05T02:35:44;11;9;
40569;PMS5003;26270;34.428;-119.710;2023-03-05T02:38:13;13;9;
40569;PMS5003;26270;34.428;-119.710;2023-03-05T02:40:44;13;12;
40569;PMS5003;26270;34.428;-119.710;2023-03-05T02:43:12;12;10;
40569;PMS5003;26270;34.428;-119.710;2023-03-05T02:45:41;13;12;
40569;PMS5003;26270;34.428;-119.710;2023-03-05T02:48:09;12;12;
40569;PMS5003;26270;34.428;-119.710;2023-03-05T02:50:38;14;11;
40569;PMS5003;26270;34.428;-119.710;2023-03-05T02:53:06;19;11;
40569;PMS5003;26270;34.428;-119.710;2023-03-05T02:55:35;17;13;
40569;PMS5003;26270;34.428;-119.710;2023-03-05T02:58:03;12;10;
40569;PMS5003;26270;34.428;-119.710;2023-03-05T03:00:32;11;11;
40569;PMS5003;26270;34.428;-119.710;2023-03-05T03:03:00;10;10;
40569;PMS5003;26270;34.428;-119.710;2023-03-05T03:05:29;13;12;
40569;PMS5003;26270;34.428;-119.710;2023-03-05T03:07:57;11;10;
40569;PMS5003;26270;34.428;-119.710;2023-03-05T03:10:26;8;8;
40569;PMS5003;26270;34.428;-119.710;2023-03-05T03:12:54;10;8;
40569;PMS5003;26270;34.428;-119.710;2023-03-05T03:15:23;10;9;
40569;PMS5003;26270;34.428;-119.710;2023-03-05T03:17:51;8;8;
40569;PMS5003;26270;34.428;-119.710;2023-03-05T03:20:20;7;7;
40569;PMS5003;26270;34.428;-119.710;2023-03-05T03:22:49;11;9;
40569;PMS5003;26270;34.428;-119.710;2023-03-05T03:25:18;14;10;
40569;PMS5003;26270;34.428;-119.710;2023-03-05T03:27:48;9;9;
40569;PMS5003;26270;34.428;-119.710;2023-03-05T03:30:17;10;9;
40569;PMS5003;26270;34.428;-119.710;2023-03-05T03:32:46;8;7;
40569;PMS5003;26270;34.428;-119.710;2023-03-05T03:35:14;11;9;
40569;PMS5003;26270;34.428;-119.710;2023-03-05T03:37:42;11;10;
40569;PMS5003;26270;34.428;-119.710;2023-03-05T03:40:11;11;11;
40569;PMS5003;26270;34.428;-119.710;2023-03-05T03:42:39;12;10;
40569;PMS5003;26270;34.428;-119.710;2023-03-05T03:45:08;13;9;
40569;PMS5003;26270;34.428;-119.710;2023-03-05T03:47:37;13;9;
40569;PMS5003;26270;34.428;-119.710;2023-03-05T03:50:06;11;10;
40569;PMS5003;26270;34.428;-119.710;2023-03-05T03:52:35;13;10;
40569;PMS5003;26270;34.428;-119.710;2023-03-05T03:55:04;10;10;
40569;PMS5003;26270;34.428;-119.710;2023-03-05T03:57:33;9;8;
40569;PMS5003;26270;34.428;-119.710;2023-03-05T04:00:02;16;12;
40569;PMS5003;26270;34.428;-119.710;2023-03-05T04:02:32;15;10;
40569;PMS5003;26270;34.428;-119.710;2023-03-05T04:05:01;14;9;
40569;PMS5003;26270;34.428;-119.710;2023-03-05T04:07:30;8;8;
40569;PMS5003;26270;34.428;-119.710;2023-03-05T04:09:59;9;8;
40569;PMS5003;26270;34.428;-119.710;2023-03-05T04:12:27;20;14;
40569;PMS5003;26270;34.428;-119.710;2023-03-05T04:14:56;11;10;
40569;PMS5003;26270;34.428;-119.710;2023-03-05T04:17:24;12;12;
40569;PMS5003;26270;34.428;-119.710;2023-03-05T04:19:53;11;10;
40569;PMS5003;26270;34.428;-119.710;2023-03-05T04:22:21;11;10;
40569;PMS5003;26270;34.428;-119.710;2023-03-05T04:24:50;14;12;
40569;PMS5003;26270;34.428;-119.710;2023-03-05T04:27:18;16;12;
40569;PMS5003;26270;34.428;-119.710;2023-03-05T04:29:47;15;11;
40569;PMS5003;26270;34.428;-119.710;2023-03-05T04:32:15;12;10;
40569;PMS5003;26270;34.428;-119.710;2023-03-05T04:34:44;12;12;
40569;PMS5003;26270;34.428;-119.710;2023-03-05T04:37:12;15;15;
40569;PMS5003;26270;34.428;-119.710;2023-03-05T04:39:40;12;12;
40569;PMS5003;26270;34.428;-119.710;2023-03-05T04:42:09;16;14;
40569;PMS5003;26270;34.428;-119.710;2023-03-05T04:44:37;16;16;
40569;PMS5003;26270;34.428;-119.710;2023-03-05T04:47:06;12;11;
40569;PMS5003;26270;34.428;-119.710;2023-03-05T04:49:34;17;16;
40569;PMS5003;26270;34.428;-119.710;2023-03-05T04:52:03;15;15;
40569;PMS5003;26270;34.428;-119.710;2023-03-05T04:54:31;20;16;
40569;PMS5003;26270;34.428;-119.710;2023-03-05T04:57:00;20;16;
40569;PMS5003;26270;34.428;-119.710;2023-03-05T04:59:28;18;16;
40569;PMS5003;26270;34.428;-119.710;2023-03-05T05:03:17;14;13;
40569;PMS5003;26270;34.428;-119.710;2023-03-05T05:05:53;20;17;
40569;PMS5003;26270;34.428;-119.710;2023-03-05T05:08:22;17;14;
40569;PMS5003;26270;34.428;-119.710;2023-03-05T05:10:55;16;15;
40569;PMS5003;26270;34.428;-119.710;2023-03-05T05:13:24;15;14;
40569;PMS5003;26270;34.428;-119.710;2023-03-05T05:15:53;18;15;
40569;PMS5003;26270;34.428;-119.710;2023-03-05T05:18:22;15;14;
40569;PMS5003;26270;34.428;-119.710;2023-03-05T05:20:51;15;15;
40569;PMS5003;26270;34.428;-119.710;2023-03-05T05:23:20;17;16;
40569;PMS5003;26270;34.428;-119.710;2023-03-05T05:25:54;19;14;
40569;PMS5003;26270;34.428;-119.710;2023-03-05T05:28:24;14;14;
40569;PMS5003;26270;34.428;-119.710;2023-03-05T05:30:52;18;14;
40569;PMS5003;26270;34.428;-119.710;2023-03-05T05:33:21;14;11;
40569;PMS5003;26270;34.428;-119.710;2023-03-05T05:35:50;10;10;
40569;PMS5003;26270;34.428;-119.710;2023-03-05T05:38:18;13;12;
40569;PMS5003;26270;34.428;-119.710;2023-03-05T05:40:46;16;9;
40569;PMS5003;26270;34.428;-119.710;2023-03-05T05:43:13;10;10;
40569;PMS5003;26270;34.428;-119.710;2023-03-05T05:45:42;13;10;
40569;PMS5003;26270;34.428;-119.710;2023-03-05T05:48:10;12;10;
40569;PMS5003;26270;34.428;-119.710;2023-03-05T05:50:38;12;12;
40569;PMS5003;26270;34.428;-119.710;2023-03-05T05:53:06;15;13;
40569;PMS5003;26270;34.428;-119.710;2023-03-05T05:55:34;14;14;
40569;PMS5003;26270;34.428;-119.710;2023-03-05T05:58:05;16;11;
40569;PMS5003;26270;34.428;-119.710;2023-03-05T06:00:33;12;11;
40569;PMS5003;26270;34.428;-119.710;2023-03-05T06:03:02;14;11;
40569;PMS5003;26270;34.428;-119.710;2023-03-05T06:05:30;11;9;
40569;PMS5003;26270;34.428;-119.710;2023-03-05T06:07:58;12;9;
40569;PMS5003;26270;34.428;-119.710;2023-03-05T06:10:27;15;13;
40569;PMS5003;26270;34.428;-119.710;2023-03-05T06:12:55;12;11;
40569;PMS5003;26270;34.428;-119.710;2023-03-05T06:15:24;13;12;
40569;PMS5003;26270;34.428;-119.710;2023-03-05T06:17:52;15;13;
40569;PMS5003;26270;34.428;-119.710;2023-03-05T06:20:20;13;13;
40569;PMS5003;26270;34.428;-119.710;2023-03-05T06:22:49;11;11;
40569;PMS5003;26270;34.428;-119.710;2023-03-05T06:25:17;13;12;
40569;PMS5003;26270;34.428;-119.710;2023-03-05T06:27:46;11;9;
40569;PMS5003;26270;34.428;-119.710;2023-03-05T06:30:14;12;9;
40569;PMS5003;26270;34.428;-119.710;2023-03-05T06:32:43;9;9;
40569;PMS5003;26270;34.428;-119.710;2023-03-05T06:35:11;8;8;
40569;PMS5003;26270;34.428;-119.710;2023-03-05T06:37:40;11;8;
40569;PMS5003;26270;34.428;-119.710;2023-03-05T06:40:09;11;10;
40569;PMS5003;26270;34.428;-119.710;2023-03-05T06:42:38;7;7;
40569;PMS5003;26270;34.428;-119.710;2023-03-05T06:45:06;11;7;
40569;PMS5003;26270;34.428;-119.710;2023-03-05T06:47:35;10;10;
40569;PMS5003;26270;34.428;-119.710;2023-03-05T06:50:04;10;8;
40569;PMS5003;26270;34.428;-119.710;2023-03-05T06:52:33;12;9;
40569;PMS5003;26270;34.428;-119.710;2023-03-05T06:55:01;11;9;
40569;PMS5003;26270;34.428;-119.710;2023-03-05T06:57:29;11;9;
40569;PMS5003;26270;34.428;-119.710;2023-03-05T06:59:57;13;11;
40569;PMS5003;26270;34.428;-119.710;2023-03-05T07:02:26;9;9;
40569;PMS5003;26270;34.428;-119.710;2023-03-05T07:04:55;12;9;
40569;PMS5003;26270;34.428;-119.710;2023-03-05T07:07:22;10;10;
40569;PMS5003;26270;34.428;-119.710;2023-03-05T07:09:50;7;7;
40569;PMS5003;26270;34.428;-119.710;2023-03-05T07:12:18;12;11;
40569;PMS5003;26270;34.428;-119.710;2023-03-05T07:14:46;12;10;
40569;PMS5003;26270;34.428;-119.710;2023-03-05T07:17:14;7;7;
40569;PMS5003;26270;34.428;-119.710;2023-03-05T07:19:42;12;10;
40569;PMS5003;26270;34.428;-119.710;2023-03-05T07:22:11;12;10;
40569;PMS5003;26270;34.428;-119.710;2023-03-05T07:24:39;10;10;
40569;PMS5003;26270;34.428;-119.710;2023-03-05T07:27:07;6;6;
40569;PMS5003;26270;34.428;-119.710;2023-03-05T07:29:36;8;8;
40569;PMS5003;26270;34.428;-119.710;2023-03-05T07:32:04;8;8;
40569;PMS5003;26270;34.428;-119.710;2023-03-05T07:34:32;8;8;
40569;PMS5003;26270;34.428;-119.710;2023-03-05T07:37:00;10;8;
40569;PMS5003;26270;34.428;-119.710;2023-03-05T07:39:28;19;16;
40569;PMS5003;26270;34.428;-119.710;2023-03-05T07:41:56;16;11;
40569;PMS5003;26270;34.428;-119.710;2023-03-05T07:44:25;132;130;
40569;PMS5003;26270;34.428;-119.710;2023-03-05T07:46:53;120;119;
40569;PMS5003;26270;34.428;-119.710;2023-03-05T07:49:21;78;77;
40569;PMS5003;26270;34.428;-119.710;2023-03-05T07:51:50;196;194;
40569;PMS5003;26270;34.428;-119.710;2023-03-05T07:54:18;214;214;
40569;PMS5003;26270;34.428;-119.710;2023-03-05T07:56:46;47;37;
40569;PMS5003;26270;34.428;-119.710;2023-03-05T07:59:15;32;32;
40569;PMS5003;26270;34.428;-119.710;2023-03-05T08:01:44;53;50;
40569;PMS5003;26270;34.428;-119.710;2023-03-05T08:04:12;36;35;
40569;PMS5003;26270;34.428;-119.710;2023-03-05T08:06:40;20;17;
40569;PMS5003;26270;34.428;-119.710;2023-03-05T08:09:09;12;11;
40569;PMS5003;26270;34.428;-119.710;2023-03-05T08:11:38;7;6;
40569;PMS5003;26270;34.428;-119.710;2023-03-05T08:14:07;8;7;
40569;PMS5003;26270;34.428;-119.710;2023-03-05T08:16:35;10;10;
40569;PMS5003;26270;34.428;-119.710;2023-03-05T08:19:05;14;13;
40569;PMS5003;26270;34.428;-119.710;2023-03-05T08:21:34;18;16;
40569;PMS5003;26270;34.428;-119.710;2023-03-05T08:24:04;17;15;
40569;PMS5003;26270;34.428;-119.710;2023-03-05T08:26:34;14;11;
40569;PMS5003;26270;34.428;-119.710;2023-03-05T08:29:03;14;12;
40569;PMS5003;26270;34.428;-119.710;2023-03-05T08:31:32;14;13;
40569;PMS5003;26270;34.428;-119.710;2023-03-05T08:34:02;13;12;
40569;PMS5003;26270;34.428;-119.710;2023-03-05T08:36:30;11;11;
40569;PMS5003;26270;34.428;-119.710;2023-03-05T08:38:59;14;13;
40569;PMS5003;26270;34.428;-119.710;2023-03-05T08:41:28;13;12;
40569;PMS5003;26270;34.428;-119.710;2023-03-05T08:43:56;8;8;
40569;PMS5003;26270;34.428;-119.710;2023-03-05T08:46:24;7;7;
40569;PMS5003;26270;34.428;-119.710;2023-03-05T08:48:53;11;11;
40569;PMS5003;26270;34.428;-119.710;2023-03-05T08:51:22;8;7;
40569;PMS5003;26270;34.428;-119.710;2023-03-05T08:53:52;7;6;
40569;PMS5003;26270;34.428;-119.710;2023-03-05T08:56:22;8;8;
40569;PMS5003;26270;34.428;-119.710;2023-03-05T08:58:50;7;6;
40569;PMS5003;26270;34.428;-119.710;2023-03-05T09:01:18;10;8;
40569;PMS5003;26270;34.428;-119.710;2023-03-05T09:03:46;11;7;
40569;PMS5003;26270;34.428;-119.710;2023-03-05T09:06:14;6;5;
40569;PMS5003;26270;34.428;-119.710;2023-03-05T09:08:42;9;9;
40569;PMS5003;26270;34.428;-119.710;2023-03-05T09:11:11;6;5;
40569;PMS5003;26270;34.428;-119.710;2023-03-05T09:13:40;7;7;
40569;PMS5003;26270;34.428;-119.710;2023-03-05T09:16:10;9;8;
40569;PMS5003;26270;34.428;-119.710;2023-03-05T09:18:39;7;6;
40569;PMS5003;26270;34.428;-119.710;2023-03-05T09:21:09;8;7;
40569;PMS5003;26270;34.428;-119.710;2023-03-05T09:23:39;7;7;
40569;PMS5003;26270;34.428;-119.710;2023-03-05T09:26:09;7;7;
40569;PMS5003;26270;34.428;-119.710;2023-03-05T09:28:39;7;7;
40569;PMS5003;26270;34.428;-119.710;2023-03-05T09:31:10;7;6;
40569;PMS5003;26270;34.428;-119.710;2023-03-05T09:33:39;8;7;
40569;PMS5003;26270;34.428;-119.710;2023-03-05T09:36:15;9;8;
40569;PMS5003;26270;34.428;-119.710;2023-03-05T09:38:46;9;9;
40569;PMS5003;26270;34.428;-119.710;2023-03-05T09:41:15;9;8;
40569;PMS5003;26270;34.428;-119.710;2023-03-05T09:43:53;12;12;
40569;PMS5003;26270;34.428;-119.710;2023-03-05T09:46:29;9;9;
40569;PMS5003;26270;34.428;-119.710;2023-03-05T09:49:09;15;13;
40569;PMS5003;26270;34.428;-119.710;2023-03-05T09:51:42;15;14;
40569;PMS5003;26270;34.428;-119.710;2023-03-05T09:54:16;11;11;
40569;PMS5003;26270;34.428;-119.710;2023-03-05T09:56:48;11;9;
40569;PMS5003;26270;34.428;-119.710;2023-03-05T09:59:23;8;7;
40569;PMS5003;26270;34.428;-119.710;2023-03-05T10:02:00;7;6;
40569;PMS5003;26270;34.428;-119.710;2023-03-05T10:04:40;10;8;
40569;PMS5003;26270;34.428;-119.710;2023-03-05T10:07:13;7;7;
40569;PMS5003;26270;34.428;-119.710;2023-03-05T10:09:48;8;8;
40569;PMS5003;26270;34.428;-119.710;2023-03-05T10:12:23;8;8;
40569;PMS5003;26270;34.428;-119.710;2023-03-05T10:14:59;9;9;
40569;PMS5003;26270;34.428;-119.710;2023-03-05T10:17:41;8;8;
40569;PMS5003;26270;34.428;-119.710;2023-03-05T10:20:35;8;8;
40569;PMS5003;26270;34.428;-119.710;2023-03-05T10:23:18;8;7;
40569;PMS5003;26270;34.428;-119.710;2023-03-05T10:25:55;9;8;
40569;PMS5003;26270;34.428;-119.710;2023-03-05T10:28:33;9;8;
40569;PMS5003;26270;34.428;-119.710;2023-03-05T10:31:13;12;10;
40569;PMS5003;26270;34.428;-119.710;2023-03-05T10:33:56;8;8;
40569;PMS5003;26270;34.428;-119.710;2023-03-05T10:36:38;9;8;
40569;PMS5003;26270;34.428;-119.710;2023-03-05T10:39:28;7;7;
40569;PMS5003;26270;34.428;-119.710;2023-03-05T10:42:14;5;5;
40569;PMS5003;26270;34.428;-119.710;2023-03-05T10:44:49;8;7;
40569;PMS5003;26270;34.428;-119.710;2023-03-05T10:47:23;7;7;
40569;PMS5003;26270;34.428;-119.710;2023-03-05T10:49:55;8;6;
40569;PMS5003;26270;34.428;-119.710;2023-03-05T10:52:27;8;6;
40569;PMS5003;26270;34.428;-119.710;2023-03-05T10:54:58;7;7;
40569;PMS5003;26270;34.428;-119.710;2023-03-05T10:57:29;9;8;
40569;PMS5003;26270;34.428;-119.710;2023-03-05T11:00:00;8;6;
40569;PMS5003;26270;34.428;-119.710;2023-03-05T11:02:52;9;8;
40569;PMS5003;26270;34.428;-119.710;2023-03-05T11:05:58;9;8;
40569;PMS5003;26270;34.428;-119.710;2023-03-05T11:08:30;10;9;
40569;PMS5003;26270;34.428;-119.710;2023-03-05T11:11:05;7;7;
40569;PMS5003;26270;34.428;-119.710;2023-03-05T11:13:49;9;7;
40569;PMS5003;26270;34.428;-119.710;2023-03-05T11:16:22;9;8;
40569;PMS5003;26270;34.428;-119.710;2023-03-05T11:19:11;10;9;
40569;PMS5003;26270;34.428;-119.710;2023-03-05T11:21:44;8;8;
40569;PMS5003;26270;34.428;-119.710;2023-03-05T11:24:29;10;9;
40569;PMS5003;26270;34.428;-119.710;2023-03-05T11:26:58;12;9;
40569;PMS5003;26270;34.428;-119.710;2023-03-05T11:29:27;8;8;
40569;PMS5003;26270;34.428;-119.710;2023-03-05T11:32:03;9;8;
40569;PMS5003;26270;34.428;-119.710;2023-03-05T11:34:43;8;8;
40569;PMS5003;26270;34.428;-119.710;2023-03-05T11:37:18;12;10;
40569;PMS5003;26270;34.428;-119.710;2023-03-05T11:40:04;14;9;
40569;PMS5003;26270;34.428;-119.710;2023-03-05T11:42:43;8;8;
40569;PMS5003;26270;34.428;-119.710;2023-03-05T11:45:15;9;9;
40569;PMS5003;26270;34.428;-119.710;2023-03-05T11:47:45;14;12;
40569;PMS5003;26270;34.428;-119.710;2023-03-05T11:50:18;9;9;
40569;PMS5003;26270;34.428;-119.710;2023-03-05T11:52:50;14;6;
40569;PMS5003;26270;34.428;-119.710;2023-03-05T11:55:23;15;10;
40569;PMS5003;26270;34.428;-119.710;2023-03-05T11:57:56;9;9;
40569;PMS5003;26270;34.428;-119.710;2023-03-05T12:00:36;6;6;
40569;PMS5003;26270;34.428;-119.710;2023-03-05T12:03:10;7;6;
40569;PMS5003;26270;34.428;-119.710;2023-03-05T12:05:43;7;7;
40569;PMS5003;26270;34.428;-119.710;2023-03-05T12:08:17;5;4;
40569;PMS5003;26270;34.428;-119.710;2023-03-05T12:10:48;13;7;
40569;PMS5003;26270;34.428;-119.710;2023-03-05T12:13:18;13;8;
40569;PMS5003;26270;34.428;-119.710;2023-03-05T12:15:59;7;6;
40569;PMS5003;26270;34.428;-119.710;2023-03-05T12:18:38;8;7;
40569;PMS5003;26270;34.428;-119.710;2023-03-05T12:21:20;8;7;
40569;PMS5003;26270;34.428;-119.710;2023-03-05T12:23:56;8;7;
40569;PMS5003;26270;34.428;-119.710;2023-03-05T12:27:31;8;6;
40569;PMS5003;26270;34.428;-119.710;2023-03-05T12:30:01;15;8;
40569;PMS5003;26270;34.428;-119.710;2023-03-05T12:32:51;9;8;
40569;PMS5003;26270;34.428;-119.710;2023-03-05T12:35:24;8;6;
40569;PMS5003;26270;34.428;-119.710;2023-03-05T12:37:57;6;6;
40569;PMS5003;26270;34.428;-119.710;2023-03-05T12:40:28;6;6;
40569;PMS5003;26270;34.428;-119.710;2023-03-05T12:42:58;7;6;
40569;PMS5003;26270;34.428;-119.710;2023-03-05T12:45:29;9;8;
40569;PMS5003;26270;34.428;-119.710;2023-03-05T12:49:26;5;4;
40569;PMS5003;26270;34.428;-119.710;2023-03-05T12:51:56;8;6;
40569;PMS5003;26270;34.428;-119.710;2023-03-05T12:54:28;7;7;
40569;PMS5003;26270;34.428;-119.710;2023-03-05T12:56:59;7;6;
40569;PMS5003;26270;34.428;-119.710;2023-03-05T12:59:43;8;7;
40569;PMS5003;26270;34.428;-119.710;2023-03-05T13:02:22;7;6;
40569;PMS5003;26270;34.428;-119.710;2023-03-05T13:04:59;7;7;
40569;PMS5003;26270;34.428;-119.710;2023-03-05T13:07:29;8;6;
40569;PMS5003;26270;34.428;-119.710;2023-03-05T13:09:58;8;7;
40569;PMS5003;26270;34.428;-119.710;2023-03-05T13:12:26;7;6;
40569;PMS5003;26270;34.428;-119.710;2023-03-05T13:14:58;8;8;
40569;PMS5003;26270;34.428;-119.710;2023-03-05T13:17:30;7;5;
40569;PMS5003;26270;34.428;-119.710;2023-03-05T13:20:02;8;7;
40569;PMS5003;26270;34.428;-119.710;2023-03-05T13:23:01;7;6;
40569;PMS5003;26270;34.428;-119.710;2023-03-05T13:25:36;7;7;
40569;PMS5003;26270;34.428;-119.710;2023-03-05T13:28:08;9;6;
40569;PMS5003;26270;34.428;-119.710;2023-03-05T13:30:42;8;7;
40569;PMS5003;26270;34.428;-119.710;2023-03-05T13:33:18;14;4;
40569;PMS5003;26270;34.428;-119.710;2023-03-05T13:35:50;6;6;
40569;PMS5003;26270;34.428;-119.710;2023-03-05T13:38:21;7;6;
40569;PMS5003;26270;34.428;-119.710;2023-03-05T13:41:05;8;8;
40569;PMS5003;26270;34.428;-119.710;2023-03-05T13:43:44;6;6;
40569;PMS5003;26270;34.428;-119.710;2023-03-05T13:46:21;11;8;
40569;PMS5003;26270;34.428;-119.710;2023-03-05T13:48:55;8;7;
40569;PMS5003;26270;34.428;-119.710;2023-03-05T13:51:39;10;8;
40569;PMS5003;26270;34.428;-119.710;2023-03-05T13:54:09;9;8;
40569;PMS5003;26270;34.428;-119.710;2023-03-05T13:56:53;9;8;
40569;PMS5003;26270;34.428;-119.710;2023-03-05T13:59:23;10;8;
40569;PMS5003;26270;34.428;-119.710;2023-03-05T14:01:53;9;8;
40569;PMS5003;26270;34.428;-119.710;2023-03-05T14:04:24;14;8;
40569;PMS5003;26270;34.428;-119.710;2023-03-05T14:06:55;8;7;
40569;PMS5003;26270;34.428;-119.710;2023-03-05T14:09:26;10;9;
40569;PMS5003;26270;34.428;-119.710;2023-03-05T14:11:58;9;7;
40569;PMS5003;26270;34.428;-119.710;2023-03-05T14:14:29;9;7;
40569;PMS5003;26270;34.428;-119.710;2023-03-05T14:17:35;7;7;
40569;PMS5003;26270;34.428;-119.710;2023-03-05T14:20:08;9;7;
40569;PMS5003;26270;34.428;-119.710;2023-03-05T14:22:49;8;7;
40569;PMS5003;26270;34.428;-119.710;2023-03-05T14:25:36;9;8;
40569;PMS5003;26270;34.428;-119.710;2023-03-05T14:28:15;9;9;
40569;PMS5003;26270;34.428;-119.710;2023-03-05T14:30:52;9;8;
40569;PMS5003;26270;34.428;-119.710;2023-03-05T14:33:22;10;5;
40569;PMS5003;26270;34.428;-119.710;2023-03-05T14:35:52;9;6;
40569;PMS5003;26270;34.428;-119.710;2023-03-05T14:38:24;10;7;
40569;PMS5003;26270;34.428;-119.710;2023-03-05T14:40:56;8;8;
40569;PMS5003;26270;34.428;-119.710;2023-03-05T14:43:25;7;6;
40569;PMS5003;26270;34.428;-119.710;2023-03-05T14:45:53;10;8;
40569;PMS5003;26270;34.428;-119.710;2023-03-05T14:48:22;10;7;
40569;PMS5003;26270;34.428;-119.710;2023-03-05T14:50:51;9;7;
40569;PMS5003;26270;34.428;-119.710;2023-03-05T14:53:21;14;9;
40569;PMS5003;26270;34.428;-119.710;2023-03-05T14:55:52;8;7;
40569;PMS5003;26270;34.428;-119.710;2023-03-05T14:58:22;9;9;
40569;PMS5003;26270;34.428;-119.710;2023-03-05T15:00:52;7;7;
40569;PMS5003;26270;34.428;-119.710;2023-03-05T15:03:22;8;7;
40569;PMS5003;26270;34.428;-119.710;2023-03-05T15:05:51;11;10;
40569;PMS5003;26270;34.428;-119.710;2023-03-05T15:08:24;10;8;
40569;PMS5003;26270;34.428;-119.710;2023-03-05T15:10:54;9;8;
40569;PMS5003;26270;34.428;-119.710;2023-03-05T15:13:22;11;8;
40569;PMS5003;26270;34.428;-119.710;2023-03-05T15:15:51;10;8;
40569;PMS5003;26270;34.428;-119.710;2023-03-05T15:18:20;10;8;
40569;PMS5003;26270;34.428;-119.710;2023-03-05T15:20:48;12;9;
40569;PMS5003;26270;34.428;-119.710;2023-03-05T15:23:17;11;8;
40569;PMS5003;26270;34.428;-119.710;2023-03-05T15:25:46;12;9;
40569;PMS5003;26270;34.428;-119.710;2023-03-05T15:28:14;11;9;
40569;PMS5003;26270;34.428;-119.710;2023-03-05T15:30:44;10;9;
40569;PMS5003;26270;34.428;-119.710;2023-03-05T15:33:14;12;10;
40569;PMS5003;26270;34.428;-119.710;2023-03-05T15:35:43;9;8;
40569;PMS5003;26270;34.428;-119.710;2023-03-05T15:38:11;13;8;
40569;PMS5003;26270;34.428;-119.710;2023-03-05T15:40:40;7;7;
40569;PMS5003;26270;34.428;-119.710;2023-03-05T15:43:08;5;5;
40569;PMS5003;26270;34.428;-119.710;2023-03-05T15:45:37;8;8;
40569;PMS5003;26270;34.428;-119.710;2023-03-05T15:48:06;8;7;
40569;PMS5003;26270;34.428;-119.710;2023-03-05T15:50:34;6;4;
40569;PMS5003;26270;34.428;-119.710;2023-03-05T15:53:02;4;3;
40569;PMS5003;26270;34.428;-119.710;2023-03-05T15:55:31;4;4;
40569;PMS5003;26270;34.428;-119.710;2023-03-05T15:58:03;5;4;
40569;PMS5003;26270;34.428;-119.710;2023-03-05T16:00:33;4;3;
40569;PMS5003;26270;34.428;-119.710;2023-03-05T16:03:02;4;3;
40569;PMS5003;26270;34.428;-119.710;2023-03-05T16:05:32;9;7;
40569;PMS5003;26270;34.428;-119.710;2023-03-05T16:08:00;6;6;
40569;PMS5003;26270;34.428;-119.710;2023-03-05T16:10:29;6;5;
40569;PMS5003;26270;34.428;-119.710;2023-03-05T16:12:59;4;4;
40569;PMS5003;26270;34.428;-119.710;2023-03-05T16:15:30;10;8;